sensor_id;sensor_type;location;lat;lon;timestamp;P1;durP1;ratioP1;P2;durP2;ratioP2
56997;SDS011;42890;44.244;22.530;2023-05-18T00:00:51;10.40;;;8.30;;
56997;SDS011;42890;44.244;22.530;2023-05-18T00:03:18;8.85;;;6.70;;
56997;SDS011;42890;44.244;22.530;2023-05-18T00:05:44;10.95;;;7.90;;
56997;SDS011;42890;44.244;22.530;2023-05-18T00:08:11;9.77;;;6.28;;
56997;SDS011;42890;44.244;22.530;2023-05-18T00:10:37;6.75;;;6.05;;
56997;SDS011;42890;44.244;22.530;2023-05-18T00:13:03;11.38;;;6.43;;
56997;SDS011;42890;44.244;22.530;2023-05-18T00:15:32;11.77;;;6.57;;
56997;SDS011;42890;44.244;22.530;2023-05-18T00:17:58;9.48;;;7.13;;
56997;SDS011;42890;44.244;22.530;2023-05-18T00:20:24;8.43;;;7.63;;
56997;SDS011;42890;44.244;22.530;2023-05-18T00:22:51;11.20;;;7.57;;
56997;SDS011;42890;44.244;22.530;2023-05-18T00:25:19;16.77;;;9.70;;
56997;SDS011;42890;44.244;22.530;2023-05-18T00:27:46;15.43;;;10.65;;
56997;SDS011;42890;44.244;22.530;2023-05-18T00:30:14;11.45;;;7.55;;
56997;SDS011;42890;44.244;22.530;2023-05-18T00:32:40;10.63;;;7.72;;
56997;SDS011;42890;44.244;22.530;2023-05-18T00:35:06;11.55;;;8.10;;
56997;SDS011;42890;44.244;22.530;2023-05-18T00:37:32;10.93;;;7.90;;
56997;SDS011;42890;44.244;22.530;2023-05-18T00:39:58;10.05;;;7.55;;
56997;SDS011;42890;44.244;22.530;2023-05-18T00:42:25;10.73;;;9.00;;
56997;SDS011;42890;44.244;22.530;2023-05-18T00:44:51;13.35;;;10.35;;
56997;SDS011;42890;44.244;22.530;2023-05-18T00:47:17;16.67;;;11.40;;
56997;SDS011;42890;44.244;22.530;2023-05-18T00:49:45;16.85;;;13.07;;
56997;SDS011;42890;44.244;22.530;2023-05-18T00:52:11;19.63;;;10.30;;
56997;SDS011;42890;44.244;22.530;2023-05-18T00:54:38;11.52;;;10.38;;
56997;SDS011;42890;44.244;22.530;2023-05-18T00:57:04;10.38;;;9.27;;
56997;SDS011;42890;44.244;22.530;2023-05-18T00:59:31;10.45;;;8.65;;
56997;SDS011;42890;44.244;22.530;2023-05-18T01:01:59;8.77;;;7.97;;
56997;SDS011;42890;44.244;22.530;2023-05-18T01:04:25;11.35;;;9.45;;
56997;SDS011;42890;44.244;22.530;2023-05-18T01:06:52;10.25;;;9.07;;
56997;SDS011;42890;44.244;22.530;2023-05-18T01:09:20;11.38;;;9.50;;
56997;SDS011;42890;44.244;22.530;2023-05-18T01:17:01;11.57;;;9.30;;
56997;SDS011;42890;44.244;22.530;2023-05-18T01:22:28;11.52;;;10.38;;
56997;SDS011;42890;44.244;22.530;2023-05-18T01:24:57;13.80;;;10.48;;
56997;SDS011;42890;44.244;22.530;2023-05-18T01:27:27;12.35;;;10.57;;
56997;SDS011;42890;44.244;22.530;2023-05-18T01:29:53;11.88;;;10.38;;
56997;SDS011;42890;44.244;22.530;2023-05-18T01:32:20;11.07;;;10.13;;
56997;SDS011;42890;44.244;22.530;2023-05-18T01:34:47;11.40;;;10.15;;
56997;SDS011;42890;44.244;22.530;2023-05-18T01:37:13;12.85;;;11.15;;
56997;SDS011;42890;44.244;22.530;2023-05-18T01:39:39;11.50;;;10.50;;
56997;SDS011;42890;44.244;22.530;2023-05-18T01:42:07;20.02;;;11.20;;
56997;SDS011;42890;44.244;22.530;2023-05-18T01:47:21;12.60;;;11.27;;
56997;SDS011;42890;44.244;22.530;2023-05-18T01:49:58;11.98;;;10.88;;
56997;SDS011;42890;44.244;22.530;2023-05-18T01:52:39;12.35;;;11.20;;
56997;SDS011;42890;44.244;22.530;2023-05-18T01:55:07;11.80;;;10.70;;
56997;SDS011;42890;44.244;22.530;2023-05-18T01:57:35;11.85;;;10.77;;
56997;SDS011;42890;44.244;22.530;2023-05-18T02:00:02;12.20;;;11.05;;
56997;SDS011;42890;44.244;22.530;2023-05-18T02:02:32;12.45;;;11.23;;
56997;SDS011;42890;44.244;22.530;2023-05-18T02:04:58;13.18;;;10.73;;
56997;SDS011;42890;44.244;22.530;2023-05-18T02:07:24;12.20;;;11.18;;
56997;SDS011;42890;44.244;22.530;2023-05-18T02:09:50;14.55;;;12.43;;
56997;SDS011;42890;44.244;22.530;2023-05-18T02:12:16;13.98;;;12.75;;
56997;SDS011;42890;44.244;22.530;2023-05-18T02:14:42;16.42;;;13.90;;
56997;SDS011;42890;44.244;22.530;2023-05-18T02:17:08;15.73;;;14.05;;
56997;SDS011;42890;44.244;22.530;2023-05-18T02:19:35;14.93;;;13.57;;
56997;SDS011;42890;44.244;22.530;2023-05-18T02:22:02;15.35;;;13.45;;
56997;SDS011;42890;44.244;22.530;2023-05-18T02:24:30;15.70;;;14.10;;
56997;SDS011;42890;44.244;22.530;2023-05-18T02:26:57;15.57;;;13.98;;
56997;SDS011;42890;44.244;22.530;2023-05-18T02:29:23;15.52;;;14.07;;
56997;SDS011;42890;44.244;22.530;2023-05-18T02:31:49;15.82;;;14.38;;
56997;SDS011;42890;44.244;22.530;2023-05-18T02:34:15;17.55;;;14.50;;
56997;SDS011;42890;44.244;22.530;2023-05-18T02:36:42;15.20;;;13.73;;
56997;SDS011;42890;44.244;22.530;2023-05-18T02:39:10;16.30;;;14.25;;
56997;SDS011;42890;44.244;22.530;2023-05-18T02:41:36;15.95;;;14.52;;
56997;SDS011;42890;44.244;22.530;2023-05-18T02:44:03;16.00;;;14.70;;
56997;SDS011;42890;44.244;22.530;2023-05-18T02:46:30;17.67;;;15.88;;
56997;SDS011;42890;44.244;22.530;2023-05-18T02:48:57;17.55;;;15.68;;
56997;SDS011;42890;44.244;22.530;2023-05-18T02:51:23;17.25;;;15.52;;
56997;SDS011;42890;44.244;22.530;2023-05-18T02:53:49;16.55;;;15.02;;
56997;SDS011;42890;44.244;22.530;2023-05-18T02:56:16;15.60;;;14.00;;
56997;SDS011;42890;44.244;22.530;2023-05-18T02:58:43;17.63;;;14.77;;
56997;SDS011;42890;44.244;22.530;2023-05-18T03:01:09;17.25;;;14.70;;
56997;SDS011;42890;44.244;22.530;2023-05-18T03:03:39;14.68;;;13.38;;
56997;SDS011;42890;44.244;22.530;2023-05-18T03:06:09;19.63;;;15.35;;
56997;SDS011;42890;44.244;22.530;2023-05-18T03:08:35;14.85;;;13.48;;
56997;SDS011;42890;44.244;22.530;2023-05-18T03:11:01;15.30;;;13.70;;
56997;SDS011;42890;44.244;22.530;2023-05-18T03:13:27;18.67;;;12.70;;
56997;SDS011;42890;44.244;22.530;2023-05-18T03:15:53;14.85;;;13.32;;
56997;SDS011;42890;44.244;22.530;2023-05-18T03:18:20;13.63;;;12.23;;
56997;SDS011;42890;44.244;22.530;2023-05-18T03:20:49;14.32;;;12.52;;
56997;SDS011;42890;44.244;22.530;2023-05-18T03:23:16;13.00;;;12.00;;
56997;SDS011;42890;44.244;22.530;2023-05-18T03:25:42;12.35;;;11.02;;
56997;SDS011;42890;44.244;22.530;2023-05-18T03:28:09;13.65;;;12.40;;
56997;SDS011;42890;44.244;22.530;2023-05-18T03:30:36;12.10;;;10.88;;
56997;SDS011;42890;44.244;22.530;2023-05-18T03:33:02;11.40;;;10.27;;
56997;SDS011;42890;44.244;22.530;2023-05-18T03:35:28;21.20;;;15.35;;
56997;SDS011;42890;44.244;22.530;2023-05-18T03:37:55;187.57;;;88.10;;
56997;SDS011;42890;44.244;22.530;2023-05-18T03:40:21;165.82;;;72.55;;
56997;SDS011;42890;44.244;22.530;2023-05-18T03:42:47;288.77;;;130.60;;
56997;SDS011;42890;44.244;22.530;2023-05-18T03:45:13;182.15;;;90.00;;
56997;SDS011;42890;44.244;22.530;2023-05-18T03:47:39;178.70;;;87.43;;
56997;SDS011;42890;44.244;22.530;2023-05-18T03:50:06;369.23;;;177.35;;
56997;SDS011;42890;44.244;22.530;2023-05-18T03:52:33;148.30;;;74.30;;
56997;SDS011;42890;44.244;22.530;2023-05-18T03:55:00;268.40;;;123.85;;
56997;SDS011;42890;44.244;22.530;2023-05-18T03:57:29;263.55;;;122.20;;
56997;SDS011;42890;44.244;22.530;2023-05-18T03:59:56;66.15;;;40.25;;
56997;SDS011;42890;44.244;22.530;2023-05-18T04:02:23;50.17;;;32.95;;
56997;SDS011;42890;44.244;22.530;2023-05-18T04:04:49;144.70;;;71.10;;
56997;SDS011;42890;44.244;22.530;2023-05-18T04:07:19;194.38;;;90.50;;
56997;SDS011;42890;44.244;22.530;2023-05-18T04:09:48;151.88;;;73.72;;
56997;SDS011;42890;44.244;22.530;2023-05-18T04:12:15;243.00;;;113.93;;
56997;SDS011;42890;44.244;22.530;2023-05-18T04:14:41;84.45;;;52.67;;
56997;SDS011;42890;44.244;22.530;2023-05-18T04:17:08;111.85;;;63.22;;
56997;SDS011;42890;44.244;22.530;2023-05-18T04:19:34;58.67;;;37.08;;
56997;SDS011;42890;44.244;22.530;2023-05-18T04:22:00;43.95;;;33.83;;
56997;SDS011;42890;44.244;22.530;2023-05-18T04:24:30;38.35;;;24.45;;
56997;SDS011;42890;44.244;22.530;2023-05-18T04:26:59;20.73;;;18.73;;
56997;SDS011;42890;44.244;22.530;2023-05-18T04:29:26;19.13;;;17.15;;
56997;SDS011;42890;44.244;22.530;2023-05-18T04:31:53;16.50;;;14.93;;
56997;SDS011;42890;44.244;22.530;2023-05-18T04:34:24;12.20;;;11.00;;
56997;SDS011;42890;44.244;22.530;2023-05-18T04:36:53;12.50;;;11.20;;
56997;SDS011;42890;44.244;22.530;2023-05-18T04:39:20;11.55;;;10.52;;
56997;SDS011;42890;44.244;22.530;2023-05-18T04:41:48;11.23;;;10.23;;
56997;SDS011;42890;44.244;22.530;2023-05-18T04:44:15;11.77;;;10.68;;
56997;SDS011;42890;44.244;22.530;2023-05-18T04:46:42;11.75;;;10.75;;
56997;SDS011;42890;44.244;22.530;2023-05-18T04:49:11;12.75;;;10.27;;
56997;SDS011;42890;44.244;22.530;2023-05-18T04:51:38;10.95;;;9.93;;
56997;SDS011;42890;44.244;22.530;2023-05-18T04:54:06;11.02;;;9.48;;
56997;SDS011;42890;44.244;22.530;2023-05-18T04:56:33;11.25;;;10.23;;
56997;SDS011;42890;44.244;22.530;2023-05-18T04:58:59;32.75;;;20.58;;
56997;SDS011;42890;44.244;22.530;2023-05-18T05:01:25;127.15;;;57.63;;
56997;SDS011;42890;44.244;22.530;2023-05-18T05:03:52;39.63;;;25.67;;
56997;SDS011;42890;44.244;22.530;2023-05-18T05:06:18;21.33;;;17.58;;
56997;SDS011;42890;44.244;22.530;2023-05-18T05:08:44;12.57;;;11.38;;
56997;SDS011;42890;44.244;22.530;2023-05-18T05:11:11;13.93;;;12.73;;
56997;SDS011;42890;44.244;22.530;2023-05-18T05:13:37;25.08;;;22.00;;
56997;SDS011;42890;44.244;22.530;2023-05-18T05:16:03;26.55;;;24.05;;
56997;SDS011;42890;44.244;22.530;2023-05-18T05:18:30;23.42;;;20.98;;
56997;SDS011;42890;44.244;22.530;2023-05-18T05:20:56;23.42;;;21.02;;
56997;SDS011;42890;44.244;22.530;2023-05-18T05:23:23;23.15;;;20.75;;
56997;SDS011;42890;44.244;22.530;2023-05-18T05:25:49;19.75;;;17.70;;
56997;SDS011;42890;44.244;22.530;2023-05-18T05:28:15;20.17;;;18.27;;
56997;SDS011;42890;44.244;22.530;2023-05-18T05:30:41;18.42;;;16.60;;
56997;SDS011;42890;44.244;22.530;2023-05-18T05:33:07;17.50;;;15.73;;
56997;SDS011;42890;44.244;22.530;2023-05-18T05:35:34;11.75;;;10.77;;
56997;SDS011;42890;44.244;22.530;2023-05-18T05:38:00;10.27;;;9.25;;
56997;SDS011;42890;44.244;22.530;2023-05-18T05:40:26;11.32;;;9.98;;
56997;SDS011;42890;44.244;22.530;2023-05-18T05:42:52;11.32;;;10.07;;
56997;SDS011;42890;44.244;22.530;2023-05-18T05:45:18;31.25;;;19.85;;
56997;SDS011;42890;44.244;22.530;2023-05-18T05:47:45;12.50;;;9.50;;
56997;SDS011;42890;44.244;22.530;2023-05-18T05:50:11;8.85;;;7.95;;
56997;SDS011;42890;44.244;22.530;2023-05-18T05:52:37;10.20;;;9.20;;
56997;SDS011;42890;44.244;22.530;2023-05-18T05:55:03;10.00;;;9.20;;
56997;SDS011;42890;44.244;22.530;2023-05-18T05:57:29;11.73;;;8.68;;
56997;SDS011;42890;44.244;22.530;2023-05-18T05:59:56;9.70;;;8.70;;
56997;SDS011;42890;44.244;22.530;2023-05-18T06:02:22;8.82;;;7.35;;
56997;SDS011;42890;44.244;22.530;2023-05-18T06:04:48;8.88;;;7.97;;
56997;SDS011;42890;44.244;22.530;2023-05-18T06:07:14;8.80;;;7.72;;
56997;SDS011;42890;44.244;22.530;2023-05-18T06:09:40;12.45;;;8.20;;
56997;SDS011;42890;44.244;22.530;2023-05-18T06:12:06;8.35;;;7.20;;
56997;SDS011;42890;44.244;22.530;2023-05-18T06:14:33;8.32;;;7.32;;
56997;SDS011;42890;44.244;22.530;2023-05-18T06:16:59;8.32;;;7.30;;
56997;SDS011;42890;44.244;22.530;2023-05-18T06:19:25;13.23;;;8.07;;
56997;SDS011;42890;44.244;22.530;2023-05-18T06:21:51;11.32;;;9.18;;
56997;SDS011;42890;44.244;22.530;2023-05-18T06:24:17;13.27;;;11.88;;
56997;SDS011;42890;44.244;22.530;2023-05-18T06:26:44;22.25;;;15.85;;
56997;SDS011;42890;44.244;22.530;2023-05-18T06:29:10;17.80;;;16.10;;
56997;SDS011;42890;44.244;22.530;2023-05-18T06:31:36;10.05;;;8.38;;
56997;SDS011;42890;44.244;22.530;2023-05-18T06:34:02;8.65;;;7.38;;
56997;SDS011;42890;44.244;22.530;2023-05-18T06:36:28;8.98;;;7.80;;
56997;SDS011;42890;44.244;22.530;2023-05-18T06:38:55;8.88;;;8.07;;
56997;SDS011;42890;44.244;22.530;2023-05-18T06:41:22;8.98;;;8.27;;
56997;SDS011;42890;44.244;22.530;2023-05-18T06:43:49;8.82;;;8.10;;
56997;SDS011;42890;44.244;22.530;2023-05-18T06:46:19;9.50;;;8.60;;
56997;SDS011;42890;44.244;22.530;2023-05-18T06:48:45;8.40;;;7.57;;
56997;SDS011;42890;44.244;22.530;2023-05-18T06:51:11;20.40;;;13.85;;
56997;SDS011;42890;44.244;22.530;2023-05-18T06:53:40;62.88;;;34.58;;
56997;SDS011;42890;44.244;22.530;2023-05-18T06:56:06;17.17;;;12.60;;
56997;SDS011;42890;44.244;22.530;2023-05-18T06:58:32;59.50;;;39.78;;
56997;SDS011;42890;44.244;22.530;2023-05-18T07:00:59;26.35;;;16.70;;
56997;SDS011;42890;44.244;22.530;2023-05-18T07:03:26;255.40;;;121.78;;
56997;SDS011;42890;44.244;22.530;2023-05-18T07:05:53;47.30;;;37.40;;
56997;SDS011;42890;44.244;22.530;2023-05-18T07:08:20;73.03;;;54.25;;
56997;SDS011;42890;44.244;22.530;2023-05-18T07:10:46;46.50;;;36.88;;
56997;SDS011;42890;44.244;22.530;2023-05-18T07:13:12;42.60;;;33.47;;
56997;SDS011;42890;44.244;22.530;2023-05-18T07:15:38;70.38;;;52.05;;
56997;SDS011;42890;44.244;22.530;2023-05-18T07:18:04;87.75;;;56.30;;
56997;SDS011;42890;44.244;22.530;2023-05-18T07:20:30;134.30;;;66.05;;
56997;SDS011;42890;44.244;22.530;2023-05-18T07:22:57;78.28;;;47.13;;
56997;SDS011;42890;44.244;22.530;2023-05-18T07:25:29;30.90;;;24.17;;
56997;SDS011;42890;44.244;22.530;2023-05-18T07:27:55;11.02;;;9.23;;
56997;SDS011;42890;44.244;22.530;2023-05-18T07:30:21;11.40;;;7.55;;
56997;SDS011;42890;44.244;22.530;2023-05-18T07:32:48;9.65;;;7.88;;
56997;SDS011;42890;44.244;22.530;2023-05-18T07:35:15;103.57;;;56.75;;
56997;SDS011;42890;44.244;22.530;2023-05-18T07:37:43;54.28;;;33.33;;
56997;SDS011;42890;44.244;22.530;2023-05-18T07:40:09;16.13;;;13.48;;
56997;SDS011;42890;44.244;22.530;2023-05-18T07:42:39;19.08;;;15.20;;
56997;SDS011;42890;44.244;22.530;2023-05-18T07:45:06;17.67;;;14.23;;
56997;SDS011;42890;44.244;22.530;2023-05-18T07:47:32;27.40;;;17.88;;
56997;SDS011;42890;44.244;22.530;2023-05-18T07:49:59;22.30;;;18.42;;
56997;SDS011;42890;44.244;22.530;2023-05-18T07:52:25;40.67;;;31.63;;
56997;SDS011;42890;44.244;22.530;2023-05-18T07:54:52;31.92;;;23.35;;
56997;SDS011;42890;44.244;22.530;2023-05-18T07:57:18;44.92;;;25.52;;
56997;SDS011;42890;44.244;22.530;2023-05-18T07:59:45;32.00;;;21.92;;
56997;SDS011;42890;44.244;22.530;2023-05-18T08:02:11;27.08;;;16.40;;
56997;SDS011;42890;44.244;22.530;2023-05-18T08:04:37;25.02;;;11.90;;
56997;SDS011;42890;44.244;22.530;2023-05-18T08:07:03;21.48;;;12.73;;
56997;SDS011;42890;44.244;22.530;2023-05-18T08:09:29;14.63;;;11.55;;
56997;SDS011;42890;44.244;22.530;2023-05-18T08:11:56;8.23;;;7.43;;
56997;SDS011;42890;44.244;22.530;2023-05-18T08:14:22;8.50;;;7.40;;
56997;SDS011;42890;44.244;22.530;2023-05-18T08:16:48;11.05;;;6.80;;
56997;SDS011;42890;44.244;22.530;2023-05-18T08:19:15;14.55;;;6.60;;
56997;SDS011;42890;44.244;22.530;2023-05-18T08:21:41;7.55;;;6.65;;
56997;SDS011;42890;44.244;22.530;2023-05-18T08:24:07;8.38;;;7.57;;
56997;SDS011;42890;44.244;22.530;2023-05-18T08:26:34;10.70;;;7.20;;
56997;SDS011;42890;44.244;22.530;2023-05-18T08:29:00;10.95;;;7.45;;
56997;SDS011;42890;44.244;22.530;2023-05-18T08:31:33;7.97;;;7.18;;
56997;SDS011;42890;44.244;22.530;2023-05-18T08:33:59;6.97;;;6.25;;
56997;SDS011;42890;44.244;22.530;2023-05-18T08:36:25;6.55;;;5.95;;
56997;SDS011;42890;44.244;22.530;2023-05-18T08:38:58;11.32;;;6.10;;
56997;SDS011;42890;44.244;22.530;2023-05-18T08:44:10;7.25;;;6.55;;
56997;SDS011;42890;44.244;22.530;2023-05-18T08:46:39;7.10;;;5.70;;
56997;SDS011;42890;44.244;22.530;2023-05-18T08:49:06;6.13;;;5.63;;
56997;SDS011;42890;44.244;22.530;2023-05-18T08:51:34;6.32;;;5.82;;
56997;SDS011;42890;44.244;22.530;2023-05-18T08:54:01;8.23;;;6.22;;
56997;SDS011;42890;44.244;22.530;2023-05-18T08:56:29;8.13;;;6.20;;
56997;SDS011;42890;44.244;22.530;2023-05-18T08:58:57;7.10;;;6.22;;
56997;SDS011;42890;44.244;22.530;2023-05-18T09:01:24;10.90;;;8.80;;
56997;SDS011;42890;44.244;22.530;2023-05-18T09:03:54;22.63;;;14.63;;
56997;SDS011;42890;44.244;22.530;2023-05-18T09:06:20;8.05;;;5.50;;
56997;SDS011;42890;44.244;22.530;2023-05-18T09:08:48;6.43;;;5.78;;
56997;SDS011;42890;44.244;22.530;2023-05-18T09:11:16;8.55;;;6.68;;
56997;SDS011;42890;44.244;22.530;2023-05-18T09:13:43;25.38;;;14.25;;
56997;SDS011;42890;44.244;22.530;2023-05-18T09:16:09;6.50;;;5.90;;
56997;SDS011;42890;44.244;22.530;2023-05-18T09:18:35;8.63;;;6.20;;
56997;SDS011;42890;44.244;22.530;2023-05-18T09:21:02;9.75;;;5.78;;
56997;SDS011;42890;44.244;22.530;2023-05-18T09:23:28;6.22;;;5.63;;
56997;SDS011;42890;44.244;22.530;2023-05-18T09:25:55;7.28;;;5.72;;
56997;SDS011;42890;44.244;22.530;2023-05-18T09:28:25;7.78;;;5.65;;
56997;SDS011;42890;44.244;22.530;2023-05-18T09:30:52;6.45;;;5.78;;
56997;SDS011;42890;44.244;22.530;2023-05-18T09:33:19;11.40;;;6.32;;
56997;SDS011;42890;44.244;22.530;2023-05-18T09:35:49;6.07;;;5.57;;
56997;SDS011;42890;44.244;22.530;2023-05-18T09:38:15;8.98;;;5.63;;
56997;SDS011;42890;44.244;22.530;2023-05-18T09:40:46;5.75;;;5.25;;
56997;SDS011;42890;44.244;22.530;2023-05-18T09:43:13;6.07;;;5.25;;
56997;SDS011;42890;44.244;22.530;2023-05-18T09:45:43;5.10;;;4.60;;
56997;SDS011;42890;44.244;22.530;2023-05-18T09:48:09;7.47;;;4.63;;
56997;SDS011;42890;44.244;22.530;2023-05-18T09:50:36;9.20;;;4.80;;
56997;SDS011;42890;44.244;22.530;2023-05-18T09:53:06;5.40;;;4.90;;
56997;SDS011;42890;44.244;22.530;2023-05-18T09:55:36;6.15;;;4.97;;
56997;SDS011;42890;44.244;22.530;2023-05-18T09:58:03;6.07;;;5.00;;
56997;SDS011;42890;44.244;22.530;2023-05-18T10:00:35;10.10;;;4.72;;
56997;SDS011;42890;44.244;22.530;2023-05-18T10:03:01;5.95;;;4.97;;
56997;SDS011;42890;44.244;22.530;2023-05-18T10:05:28;6.60;;;4.47;;
56997;SDS011;42890;44.244;22.530;2023-05-18T10:07:56;6.07;;;4.93;;
56997;SDS011;42890;44.244;22.530;2023-05-18T10:10:24;7.28;;;5.50;;
56997;SDS011;42890;44.244;22.530;2023-05-18T10:12:51;5.90;;;4.45;;
56997;SDS011;42890;44.244;22.530;2023-05-18T10:15:19;6.65;;;5.47;;
56997;SDS011;42890;44.244;22.530;2023-05-18T10:17:46;7.32;;;4.80;;
56997;SDS011;42890;44.244;22.530;2023-05-18T10:20:16;15.00;;;8.48;;
56997;SDS011;42890;44.244;22.530;2023-05-18T10:22:44;8.00;;;4.68;;
56997;SDS011;42890;44.244;22.530;2023-05-18T10:25:10;6.55;;;4.68;;
56997;SDS011;42890;44.244;22.530;2023-05-18T10:27:36;5.95;;;4.50;;
56997;SDS011;42890;44.244;22.530;2023-05-18T10:30:05;8.07;;;4.72;;
56997;SDS011;42890;44.244;22.530;2023-05-18T10:32:33;5.65;;;4.53;;
56997;SDS011;42890;44.244;22.530;2023-05-18T10:35:01;5.18;;;4.43;;
56997;SDS011;42890;44.244;22.530;2023-05-18T10:37:29;7.07;;;5.15;;
56997;SDS011;42890;44.244;22.530;2023-05-18T10:39:57;5.65;;;4.93;;
56997;SDS011;42890;44.244;22.530;2023-05-18T10:42:24;7.53;;;4.47;;
56997;SDS011;42890;44.244;22.530;2023-05-18T10:44:51;5.68;;;4.55;;
56997;SDS011;42890;44.244;22.530;2023-05-18T10:47:18;6.68;;;4.40;;
56997;SDS011;42890;44.244;22.530;2023-05-18T10:49:46;5.13;;;4.63;;
56997;SDS011;42890;44.244;22.530;2023-05-18T10:52:13;5.28;;;4.82;;
56997;SDS011;42890;44.244;22.530;2023-05-18T10:54:41;6.90;;;4.40;;
56997;SDS011;42890;44.244;22.530;2023-05-18T10:57:09;6.25;;;4.40;;
56997;SDS011;42890;44.244;22.530;2023-05-18T10:59:37;6.75;;;4.40;;
56997;SDS011;42890;44.244;22.530;2023-05-18T11:02:05;5.78;;;4.95;;
56997;SDS011;42890;44.244;22.530;2023-05-18T11:04:32;7.82;;;5.18;;
56997;SDS011;42890;44.244;22.530;2023-05-18T11:06:58;7.00;;;5.00;;
56997;SDS011;42890;44.244;22.530;2023-05-18T11:09:27;6.07;;;4.47;;
56997;SDS011;42890;44.244;22.530;2023-05-18T11:11:56;9.48;;;4.18;;
56997;SDS011;42890;44.244;22.530;2023-05-18T11:14:24;4.95;;;3.92;;
56997;SDS011;42890;44.244;22.530;2023-05-18T11:16:51;7.28;;;4.43;;
56997;SDS011;42890;44.244;22.530;2023-05-18T11:19:17;9.93;;;4.32;;
56997;SDS011;42890;44.244;22.530;2023-05-18T11:24:17;14.05;;;12.65;;
56997;SDS011;42890;44.244;22.530;2023-05-18T11:26:44;5.20;;;4.70;;
56997;SDS011;42890;44.244;22.530;2023-05-18T11:31:43;10.43;;;4.38;;
56997;SDS011;42890;44.244;22.530;2023-05-18T11:36:54;6.07;;;4.15;;
56997;SDS011;42890;44.244;22.530;2023-05-18T11:39:24;6.32;;;4.13;;
56997;SDS011;42890;44.244;22.530;2023-05-18T11:42:06;5.75;;;4.10;;
56997;SDS011;42890;44.244;22.530;2023-05-18T11:47:02;4.93;;;4.45;;
56997;SDS011;42890;44.244;22.530;2023-05-18T11:49:50;4.82;;;3.88;;
56997;SDS011;42890;44.244;22.530;2023-05-18T11:52:18;4.30;;;3.90;;
56997;SDS011;42890;44.244;22.530;2023-05-18T11:54:45;9.52;;;4.63;;
56997;SDS011;42890;44.244;22.530;2023-05-18T11:57:15;7.88;;;4.40;;
56997;SDS011;42890;44.244;22.530;2023-05-18T11:59:45;7.28;;;4.10;;
56997;SDS011;42890;44.244;22.530;2023-05-18T12:02:12;5.38;;;4.03;;
56997;SDS011;42890;44.244;22.530;2023-05-18T12:04:47;4.88;;;3.92;;
56997;SDS011;42890;44.244;22.530;2023-05-18T12:07:17;6.82;;;4.43;;
56997;SDS011;42890;44.244;22.530;2023-05-18T12:09:44;5.68;;;4.70;;
56997;SDS011;42890;44.244;22.530;2023-05-18T12:12:11;5.22;;;4.00;;
56997;SDS011;42890;44.244;22.530;2023-05-18T12:14:40;6.00;;;4.10;;
56997;SDS011;42890;44.244;22.530;2023-05-18T12:17:07;5.78;;;4.10;;
56997;SDS011;42890;44.244;22.530;2023-05-18T12:19:45;3.95;;;3.45;;
56997;SDS011;42890;44.244;22.530;2023-05-18T12:22:11;7.53;;;3.88;;
56997;SDS011;42890;44.244;22.530;2023-05-18T12:24:41;6.82;;;3.83;;
56997;SDS011;42890;44.244;22.530;2023-05-18T12:27:08;6.18;;;3.80;;
56997;SDS011;42890;44.244;22.530;2023-05-18T12:29:38;9.00;;;3.95;;
56997;SDS011;42890;44.244;22.530;2023-05-18T12:32:05;4.20;;;3.22;;
56997;SDS011;42890;44.244;22.530;2023-05-18T12:34:33;7.10;;;4.07;;
56997;SDS011;42890;44.244;22.530;2023-05-18T12:37:00;4.45;;;3.33;;
56997;SDS011;42890;44.244;22.530;2023-05-18T12:39:26;4.22;;;3.70;;
56997;SDS011;42890;44.244;22.530;2023-05-18T12:41:52;6.97;;;3.70;;
56997;SDS011;42890;44.244;22.530;2023-05-18T12:44:18;4.05;;;3.40;;
56997;SDS011;42890;44.244;22.530;2023-05-18T12:46:45;6.30;;;3.50;;
56997;SDS011;42890;44.244;22.530;2023-05-18T12:49:12;4.90;;;3.42;;
56997;SDS011;42890;44.244;22.530;2023-05-18T12:51:38;7.30;;;3.40;;
56997;SDS011;42890;44.244;22.530;2023-05-18T12:54:04;8.50;;;4.18;;
56997;SDS011;42890;44.244;22.530;2023-05-18T12:56:50;6.68;;;4.18;;
56997;SDS011;42890;44.244;22.530;2023-05-18T12:59:16;6.00;;;3.80;;
56997;SDS011;42890;44.244;22.530;2023-05-18T13:01:43;4.13;;;3.50;;
56997;SDS011;42890;44.244;22.530;2023-05-18T13:04:10;8.85;;;3.88;;
56997;SDS011;42890;44.244;22.530;2023-05-18T13:06:37;5.43;;;3.58;;
56997;SDS011;42890;44.244;22.530;2023-05-18T13:09:06;4.88;;;3.33;;
56997;SDS011;42890;44.244;22.530;2023-05-18T13:11:32;4.13;;;3.42;;
56997;SDS011;42890;44.244;22.530;2023-05-18T13:14:05;8.75;;;3.92;;
56997;SDS011;42890;44.244;22.530;2023-05-18T13:16:32;5.15;;;3.67;;
56997;SDS011;42890;44.244;22.530;2023-05-18T13:19:00;5.88;;;3.17;;
56997;SDS011;42890;44.244;22.530;2023-05-18T13:21:26;5.82;;;3.63;;
56997;SDS011;42890;44.244;22.530;2023-05-18T13:23:53;12.15;;;2.97;;
56997;SDS011;42890;44.244;22.530;2023-05-18T13:26:22;6.88;;;3.30;;
56997;SDS011;42890;44.244;22.530;2023-05-18T13:28:49;3.47;;;3.00;;
56997;SDS011;42890;44.244;22.530;2023-05-18T13:31:16;6.28;;;2.90;;
56997;SDS011;42890;44.244;22.530;2023-05-18T13:33:42;5.72;;;2.83;;
56997;SDS011;42890;44.244;22.530;2023-05-18T13:36:09;3.47;;;2.95;;
56997;SDS011;42890;44.244;22.530;2023-05-18T13:38:36;6.05;;;3.20;;
56997;SDS011;42890;44.244;22.530;2023-05-18T13:41:03;3.63;;;3.03;;
56997;SDS011;42890;44.244;22.530;2023-05-18T13:43:30;4.95;;;3.00;;
56997;SDS011;42890;44.244;22.530;2023-05-18T13:45:56;6.68;;;3.40;;
56997;SDS011;42890;44.244;22.530;2023-05-18T13:48:22;7.43;;;3.72;;
56997;SDS011;42890;44.244;22.530;2023-05-18T13:50:48;7.05;;;5.97;;
56997;SDS011;42890;44.244;22.530;2023-05-18T13:53:15;5.00;;;3.50;;
56997;SDS011;42890;44.244;22.530;2023-05-18T13:55:41;4.47;;;3.50;;
56997;SDS011;42890;44.244;22.530;2023-05-18T13:58:07;5.97;;;3.30;;
56997;SDS011;42890;44.244;22.530;2023-05-18T14:00:33;5.13;;;3.83;;
56997;SDS011;42890;44.244;22.530;2023-05-18T14:03:00;10.00;;;3.35;;
56997;SDS011;42890;44.244;22.530;2023-05-18T14:05:27;5.35;;;3.35;;
56997;SDS011;42890;44.244;22.530;2023-05-18T14:07:53;6.07;;;3.65;;
56997;SDS011;42890;44.244;22.530;2023-05-18T14:10:20;3.72;;;3.38;;
56997;SDS011;42890;44.244;22.530;2023-05-18T14:12:47;5.90;;;3.00;;
56997;SDS011;42890;44.244;22.530;2023-05-18T14:15:13;4.18;;;3.05;;
56997;SDS011;42890;44.244;22.530;2023-05-18T14:17:40;4.35;;;2.88;;
56997;SDS011;42890;44.244;22.530;2023-05-18T14:20:06;5.53;;;3.17;;
56997;SDS011;42890;44.244;22.530;2023-05-18T14:22:32;5.70;;;3.28;;
56997;SDS011;42890;44.244;22.530;2023-05-18T14:24:59;4.60;;;3.25;;
56997;SDS011;42890;44.244;22.530;2023-05-18T14:27:25;4.88;;;3.00;;
56997;SDS011;42890;44.244;22.530;2023-05-18T14:29:51;4.35;;;3.10;;
56997;SDS011;42890;44.244;22.530;2023-05-18T14:32:18;7.60;;;3.13;;
56997;SDS011;42890;44.244;22.530;2023-05-18T14:34:47;7.25;;;2.90;;
56997;SDS011;42890;44.244;22.530;2023-05-18T14:37:19;5.38;;;3.10;;
56997;SDS011;42890;44.244;22.530;2023-05-18T14:39:45;9.02;;;2.60;;
56997;SDS011;42890;44.244;22.530;2023-05-18T14:42:11;29.35;;;3.67;;
56997;SDS011;42890;44.244;22.530;2023-05-18T14:44:37;4.00;;;3.60;;